createdAt,value
2018-05-17T00:01:41.907Z,100394.83
2018-05-17T00:04:09.416Z,100395.92
2018-05-17T00:06:36.941Z,100395.40
2018-05-17T00:09:04.412Z,100392.41
2018-05-17T00:11:31.887Z,100395.66
2018-05-17T00:13:59.371Z,100391.16
2018-05-17T00:16:26.860Z,100397.45
2018-05-17T00:18:54.400Z,100393.50
2018-05-17T00:21:21.987Z,100396.66
2018-05-17T00:23:49.434Z,100393.78
2018-05-17T00:26:16.901Z,100397.89
2018-05-17T00:28:44.460Z,100402.00
2018-05-17T00:31:11.957Z,100397.64
2018-05-17T00:33:39.412Z,100397.09
2018-05-17T00:36:06.908Z,100399.02
2018-05-17T00:38:34.416Z,100394.77
2018-05-17T00:41:01.905Z,100391.07
2018-05-17T00:43:29.428Z,100392.16
2018-05-17T00:45:56.910Z,100393.26
2018-05-17T00:48:24.532Z,100396.15
2018-05-17T00:50:52.026Z,100395.46
2018-05-17T00:53:31.399Z,100386.30
2018-05-17T00:55:58.843Z,100391.77
2018-05-17T00:58:26.313Z,100393.55
2018-05-17T01:00:53.814Z,100389.31
2018-05-17T01:03:21.286Z,100389.17
2018-05-17T01:05:48.767Z,100392.60
2018-05-17T01:08:16.239Z,100386.84
2018-05-17T01:10:43.746Z,100392.05
2018-05-17T01:13:11.247Z,100389.31
2018-05-17T01:15:38.701Z,100378.38
2018-05-17T01:18:06.226Z,100379.60
2018-05-17T01:20:33.687Z,100379.45
2018-05-17T01:23:01.174Z,100372.36
2018-05-17T01:25:28.735Z,100376.17
2018-05-17T01:27:56.238Z,100372.08
2018-05-17T01:30:23.719Z,100374.22
2018-05-17T01:32:51.291Z,100370.42
2018-05-17T01:35:18.797Z,100366.84
2018-05-17T01:37:58.274Z,100377.36
2018-05-17T01:40:25.758Z,100373.55
2018-05-17T01:42:53.253Z,100371.23
2018-05-17T01:45:20.789Z,100372.86
2018-05-17T01:47:48.380Z,100372.05
2018-05-17T01:50:15.903Z,100371.08
2018-05-17T01:52:43.388Z,100373.41
2018-05-17T01:55:10.866Z,100369.56
2018-05-17T01:57:38.360Z,100371.59
2018-05-17T02:00:05.851Z,100365.72
2018-05-17T02:02:33.370Z,100361.06
2018-05-17T02:05:00.840Z,100366.52
2018-05-17T02:07:28.363Z,100368.68
2018-05-17T02:09:55.853Z,100364.73
2018-05-17T02:12:23.326Z,100359.52
2018-05-17T02:14:50.792Z,100369.89
2018-05-17T02:17:18.348Z,100367.30
2018-05-17T02:19:45.930Z,100364.56
2018-05-17T02:22:13.340Z,100361.94
2018-05-17T02:24:40.843Z,100363.98
2018-05-17T02:27:08.322Z,100368.34
2018-05-17T02:29:35.836Z,100372.84
2018-05-17T02:32:03.307Z,100376.95
2018-05-17T02:34:30.889Z,100382.56
2018-05-17T02:36:58.378Z,100388.31
2018-05-17T02:39:25.877Z,100386.39
2018-05-17T02:41:53.387Z,100384.88
2018-05-17T02:44:20.891Z,100386.37
2018-05-17T02:46:48.441Z,100390.31
2018-05-17T02:49:15.947Z,100385.25
2018-05-17T02:51:43.493Z,100385.34
2018-05-17T02:54:10.998Z,100383.71
2018-05-17T02:56:38.486Z,100383.31
2018-05-17T02:59:05.988Z,100376.91
2018-05-17T03:01:33.478Z,100368.00
2018-05-17T03:04:00.963Z,100371.03
2018-05-17T03:18:45.862Z,100378.48
2018-05-17T03:21:13.389Z,100377.92
2018-05-17T03:23:40.923Z,100384.07
2018-05-17T03:26:08.394Z,100384.59
2018-05-17T03:28:35.893Z,100381.73
2018-05-17T03:31:03.413Z,100386.37
2018-05-17T03:33:30.920Z,100390.98
2018-05-17T03:38:32.136Z,100401.09
2018-05-17T03:40:59.668Z,100406.94
2018-05-17T03:43:27.129Z,100403.80
2018-05-17T03:45:54.589Z,100409.25
2018-05-17T03:48:22.071Z,100404.30
2018-05-17T03:50:49.588Z,100401.98
2018-05-17T03:53:17.162Z,100405.55
2018-05-17T03:55:44.614Z,100412.31
2018-05-17T03:58:12.066Z,100412.58
2018-05-17T04:00:51.309Z,100408.76
2018-05-17T04:03:30.641Z,100411.47
2018-05-17T04:06:09.900Z,100406.50
2018-05-17T04:08:37.475Z,100407.78
2018-05-17T04:11:04.915Z,100413.28
2018-05-17T04:13:32.434Z,100414.37
2018-05-17T04:15:59.900Z,100418.70
2018-05-17T04:18:27.418Z,100421.62
2018-05-17T04:20:54.888Z,100413.42
2018-05-17T04:23:22.381Z,100428.00
2018-05-17T04:25:49.912Z,100420.42
2018-05-17T04:28:17.416Z,100425.53
2018-05-17T04:30:44.905Z,100427.98
2018-05-17T04:33:12.360Z,100436.36
2018-05-17T04:35:39.833Z,100433.79
2018-05-17T04:38:07.287Z,100426.84
2018-05-17T04:40:34.855Z,100427.50
2018-05-17T04:43:02.295Z,100437.30
2018-05-17T04:45:29.785Z,100441.39
2018-05-17T04:47:57.395Z,100437.75
2018-05-17T04:50:24.884Z,100445.42
2018-05-17T04:52:52.384Z,100450.17
2018-05-17T04:55:19.864Z,100447.93
2018-05-17T04:57:47.356Z,100455.17
2018-05-17T05:00:14.872Z,100451.59
2018-05-17T05:02:42.429Z,100455.37
2018-05-17T05:05:09.895Z,100458.22
2018-05-17T05:07:37.399Z,100453.36
2018-05-17T05:10:04.863Z,100458.69
2018-05-17T05:12:32.357Z,100467.47
2018-05-17T05:14:59.885Z,100470.37
2018-05-17T05:17:27.404Z,100460.77
2018-05-17T05:19:54.935Z,100465.16
2018-05-17T05:22:22.416Z,100467.91
2018-05-17T05:24:49.979Z,100468.18
2018-05-17T05:27:17.437Z,100464.36
2018-05-17T05:29:44.915Z,100470.96
2018-05-17T05:32:12.409Z,100467.52
2018-05-17T05:34:40.006Z,100463.70
2018-05-17T05:37:07.471Z,100467.12
2018-05-17T05:39:34.929Z,100473.78
2018-05-17T05:42:02.797Z,100473.26
2018-05-17T05:44:30.293Z,100474.91
2018-05-17T05:46:57.759Z,100469.72
2018-05-17T05:49:25.271Z,100464.52
2018-05-17T05:51:52.807Z,100475.41
2018-05-17T05:54:20.295Z,100466.92
2018-05-17T05:56:47.836Z,100475.40
2018-05-17T05:59:15.342Z,100483.03
2018-05-17T06:01:42.811Z,100487.51
2018-05-17T06:04:10.305Z,100487.83
2018-05-17T06:06:37.820Z,100486.16
2018-05-17T06:09:06.056Z,100496.77
2018-05-17T06:11:33.564Z,100496.38
2018-05-17T06:14:01.042Z,100489.99
2018-05-17T06:16:28.532Z,100493.25
2018-05-17T06:18:57.487Z,100500.11
2018-05-17T06:21:24.970Z,100495.39
2018-05-17T06:23:52.624Z,100495.64
2018-05-17T06:26:19.999Z,100502.67
2018-05-17T06:28:47.544Z,100499.71
2018-05-17T06:31:15.071Z,100502.17
2018-05-17T06:33:42.547Z,100503.40
2018-05-17T06:36:10.124Z,100511.86
2018-05-17T06:38:37.588Z,100516.14
2018-05-17T06:41:05.080Z,100510.29
2018-05-17T06:43:32.581Z,100512.38
2018-05-17T06:46:00.053Z,100509.50
2018-05-17T06:48:27.555Z,100517.06
2018-05-17T06:50:55.010Z,100515.44
2018-05-17T06:53:22.540Z,100513.54
2018-05-17T06:55:50.028Z,100529.44
2018-05-17T06:58:17.524Z,100528.31
2018-05-17T07:00:45.017Z,100519.88
2018-05-17T07:03:12.513Z,100518.03
2018-05-17T07:05:40.095Z,100518.41
2018-05-17T07:08:07.623Z,100509.69
2018-05-17T07:10:35.132Z,100513.09
2018-05-17T07:13:02.596Z,100519.19
2018-05-17T07:15:30.092Z,100521.77
2018-05-17T07:17:57.652Z,100517.09
2018-05-17T07:20:25.032Z,100523.25
2018-05-17T07:22:52.479Z,100537.00
2018-05-17T07:25:20.061Z,100537.47
2018-05-17T07:27:47.554Z,100539.48
2018-05-17T07:30:15.081Z,100548.95
2018-05-17T07:32:42.599Z,100541.73
2018-05-17T07:35:10.067Z,100550.84
2018-05-17T07:37:37.527Z,100550.81
2018-05-17T07:40:04.976Z,100554.73
2018-05-17T07:42:32.468Z,100552.31
2018-05-17T07:45:00.029Z,100550.61
2018-05-17T07:47:27.577Z,100549.58
2018-05-17T07:49:55.105Z,100544.75
2018-05-17T07:52:22.614Z,100553.05
2018-05-17T07:54:50.110Z,100554.59
2018-05-17T07:57:17.576Z,100554.54
2018-05-17T07:59:45.170Z,100558.55
2018-05-17T08:02:12.677Z,100551.30
2018-05-17T08:04:40.185Z,100562.08
2018-05-17T08:07:07.715Z,100555.35
2018-05-17T08:09:35.309Z,100557.06
2018-05-17T08:12:02.818Z,100560.92
2018-05-17T08:14:30.403Z,100552.68
2018-05-17T08:16:57.885Z,100556.84
2018-05-17T08:19:25.388Z,100564.39
2018-05-17T08:21:52.943Z,100566.02
2018-05-17T08:24:20.483Z,100569.86
2018-05-17T08:26:47.956Z,100558.05
2018-05-17T08:29:15.453Z,100563.52
2018-05-17T08:31:42.986Z,100568.28
2018-05-17T08:34:10.488Z,100563.38
2018-05-17T08:36:38.068Z,100566.92
2018-05-17T08:39:06.409Z,100570.86
2018-05-17T08:41:33.904Z,100563.96
2018-05-17T08:44:01.423Z,100571.05
2018-05-17T08:46:28.911Z,100569.49
2018-05-17T08:48:56.384Z,100556.18
2018-05-17T08:51:23.929Z,100566.37
2018-05-17T08:53:51.415Z,100565.58
2018-05-17T08:56:18.886Z,100569.09
2018-05-17T08:58:46.371Z,100567.75
2018-05-17T09:01:13.935Z,100567.23
2018-05-17T09:03:41.521Z,100564.93
2018-05-17T09:06:09.063Z,100566.23
2018-05-17T09:08:36.523Z,100573.05
2018-05-17T09:11:03.971Z,100571.80
2018-05-17T09:13:31.556Z,100581.05
2018-05-17T09:15:59.064Z,100579.49
2018-05-17T09:18:26.537Z,100582.73
2018-05-17T09:20:54.016Z,100583.19
2018-05-17T09:23:21.598Z,100585.91
2018-05-17T09:25:49.089Z,100583.64
2018-05-17T09:28:16.611Z,100586.73
2018-05-17T09:30:44.103Z,100592.02
2018-05-17T09:33:11.679Z,100596.18
2018-05-17T09:35:39.229Z,100593.62
2018-05-17T09:38:06.632Z,100596.23
2018-05-17T09:40:34.142Z,100609.80
2018-05-17T09:43:01.596Z,100607.66
2018-05-17T09:45:29.271Z,100603.18
2018-05-17T09:47:56.734Z,100613.05
2018-05-17T09:50:24.196Z,100612.15
2018-05-17T09:52:51.656Z,100615.74
2018-05-17T09:55:19.168Z,100628.73
2018-05-17T09:57:46.653Z,100624.92
2018-05-17T10:00:19.781Z,100621.34
2018-05-17T10:02:47.261Z,100614.06
2018-05-17T10:05:14.837Z,100617.05
2018-05-17T10:07:42.329Z,100617.99
2018-05-17T10:10:09.948Z,100617.73
2018-05-17T10:12:37.446Z,100613.89
2018-05-17T10:15:04.976Z,100615.77
2018-05-17T10:17:32.573Z,100618.02
2018-05-17T10:20:00.069Z,100609.17
2018-05-17T10:22:27.584Z,100618.77
2018-05-17T10:24:55.091Z,100620.34
2018-05-17T10:27:22.572Z,100609.48
2018-05-17T10:29:50.037Z,100613.36
2018-05-17T10:32:17.590Z,100613.43
2018-05-17T10:34:45.160Z,100610.66
2018-05-17T10:37:12.673Z,100615.64
2018-05-17T10:39:40.188Z,100613.05
2018-05-17T10:42:07.744Z,100612.55
2018-05-17T10:44:35.212Z,100612.27
2018-05-17T10:47:02.714Z,100619.98
2018-05-17T10:49:30.232Z,100617.45
2018-05-17T10:51:57.700Z,100610.90
2018-05-17T10:54:25.248Z,100617.27
2018-05-17T10:56:52.905Z,100624.39
2018-05-17T10:59:20.411Z,100620.20
2018-05-17T11:01:47.905Z,100621.16
2018-05-17T11:04:15.406Z,100622.95
2018-05-17T11:06:42.866Z,100616.99
2018-05-17T11:09:10.327Z,100619.99
2018-05-17T11:11:37.795Z,100621.69
2018-05-17T11:14:05.340Z,100622.06
2018-05-17T11:16:32.818Z,100618.45
2018-05-17T11:19:00.321Z,100621.57
2018-05-17T11:21:27.798Z,100624.98
2018-05-17T11:23:55.292Z,100626.52
2018-05-17T11:26:22.792Z,100632.64
2018-05-17T11:28:50.296Z,100624.77
2018-05-17T11:31:17.842Z,100635.83
2018-05-17T11:33:45.312Z,100629.16
2018-05-17T11:36:12.816Z,100624.14
2018-05-17T11:38:40.329Z,100632.66
2018-05-17T11:41:07.816Z,100629.92
2018-05-17T11:43:35.339Z,100632.91
2018-05-17T11:46:02.941Z,100629.70
2018-05-17T11:48:30.420Z,100638.52
2018-05-17T11:50:57.925Z,100631.05
2018-05-17T11:53:25.446Z,100633.64
2018-05-17T11:55:52.953Z,100634.16
2018-05-17T11:58:20.441Z,100629.05
2018-05-17T12:00:47.907Z,100634.82
2018-05-17T12:03:15.388Z,100635.95
2018-05-17T12:05:42.851Z,100633.23
2018-05-17T12:08:10.360Z,100623.63
2018-05-17T12:10:37.853Z,100633.80
2018-05-17T12:13:05.444Z,100636.62
2018-05-17T12:15:32.918Z,100630.67
2018-05-17T12:18:00.366Z,100634.90
2018-05-17T12:20:27.910Z,100630.94
2018-05-17T12:22:55.459Z,100631.39
2018-05-17T12:25:22.936Z,100632.85
2018-05-17T12:27:50.425Z,100634.06
2018-05-17T12:30:17.954Z,100626.77
2018-05-17T12:32:45.435Z,100632.98
2018-05-17T12:35:12.918Z,100630.00
2018-05-17T12:37:40.409Z,100613.28
2018-05-17T12:40:07.909Z,100620.08
2018-05-17T12:42:35.409Z,100619.52
2018-05-17T12:45:02.868Z,100628.73
2018-05-17T12:47:30.410Z,100632.59
2018-05-17T12:49:57.975Z,100632.72
2018-05-17T12:52:25.899Z,100634.56
2018-05-17T12:54:53.424Z,100625.31
2018-05-17T12:57:20.934Z,100632.67
2018-05-17T12:59:48.454Z,100634.80
2018-05-17T13:02:15.980Z,100627.15
2018-05-17T13:04:43.479Z,100628.25
2018-05-17T13:07:10.997Z,100622.69
2018-05-17T13:09:38.451Z,100623.30
2018-05-17T13:12:06.068Z,100619.87
2018-05-17T13:14:33.570Z,100616.52
2018-05-17T13:17:01.078Z,100617.89
2018-05-17T13:19:28.563Z,100615.20
2018-05-17T13:21:56.039Z,100616.64
2018-05-17T13:24:23.527Z,100615.59
2018-05-17T13:26:51.027Z,100609.16
2018-05-17T13:29:18.528Z,100614.66
2018-05-17T13:31:45.997Z,100612.61
2018-05-17T13:34:13.475Z,100613.99
2018-05-17T13:36:40.959Z,100610.73
2018-05-17T13:39:08.463Z,100613.58
2018-05-17T13:41:35.973Z,100616.11
2018-05-17T13:44:03.481Z,100607.37
2018-05-17T13:46:31.028Z,100611.88
2018-05-17T13:48:58.553Z,100602.13
2018-05-17T13:51:26.025Z,100602.91
2018-05-17T13:53:53.592Z,100607.48
2018-05-17T13:56:21.099Z,100603.98
2018-05-17T13:58:48.637Z,100596.32
2018-05-17T14:01:16.186Z,100605.14
2018-05-17T14:03:43.644Z,100605.66
2018-05-17T14:06:11.227Z,100598.41
2018-05-17T14:08:38.746Z,100602.08
2018-05-17T14:11:06.262Z,100605.95
2018-05-17T14:13:33.741Z,100608.23
2018-05-17T14:16:01.224Z,100599.09
2018-05-17T14:18:28.689Z,100596.44
2018-05-17T14:20:56.156Z,100596.09
2018-05-17T14:23:23.784Z,100598.06
2018-05-17T14:25:51.296Z,100592.93
2018-05-17T14:28:18.789Z,100597.02
2018-05-17T14:30:46.316Z,100598.16
2018-05-17T14:33:13.834Z,100589.63
2018-05-17T14:35:41.333Z,100596.37
2018-05-17T14:38:08.799Z,100600.88
2018-05-17T14:40:36.425Z,100596.84
2018-05-17T14:43:03.916Z,100610.41
2018-05-17T14:45:31.372Z,100604.28
2018-05-17T14:47:58.877Z,100605.13
2018-05-17T14:50:26.370Z,100601.71
2018-05-17T14:52:53.828Z,100602.45
2018-05-17T14:55:21.316Z,100596.25
2018-05-17T14:57:48.786Z,100609.33
2018-05-17T15:00:16.310Z,100610.93
2018-05-17T15:02:43.788Z,100608.53
2018-05-17T15:05:11.310Z,100601.79
2018-05-17T15:07:38.821Z,100608.05
2018-05-17T15:10:06.300Z,100603.97
2018-05-17T15:12:33.782Z,100604.14
2018-05-17T15:15:01.354Z,100606.42
2018-05-17T15:17:28.845Z,100600.59
2018-05-17T15:19:56.328Z,100609.41
2018-05-17T15:22:23.833Z,100607.84
2018-05-17T15:24:51.304Z,100604.30
2018-05-17T15:27:18.813Z,100606.45
2018-05-17T15:29:46.347Z,100611.14
2018-05-17T15:32:13.791Z,100609.03
2018-05-17T15:34:41.303Z,100610.30
2018-05-17T15:37:08.798Z,100599.11
2018-05-17T15:39:36.255Z,100602.78
2018-05-17T15:42:03.862Z,100600.94
2018-05-17T15:44:31.355Z,100593.36
2018-05-17T15:46:58.809Z,100600.67
2018-05-17T15:49:26.344Z,100601.20
2018-05-17T15:51:53.828Z,100603.67
2018-05-17T15:54:21.313Z,100600.46
2018-05-17T15:56:48.836Z,100595.83
2018-05-17T15:59:16.355Z,100603.36
2018-05-17T16:01:43.812Z,100595.61
2018-05-17T16:04:11.306Z,100607.16
2018-05-17T16:06:38.844Z,100595.64
2018-05-17T16:09:06.312Z,100593.95
2018-05-17T16:11:33.852Z,100603.05
2018-05-17T16:14:01.341Z,100605.78
2018-05-17T16:16:28.853Z,100610.60
2018-05-17T16:18:56.686Z,100605.36
2018-05-17T16:21:24.184Z,100612.11
2018-05-17T16:23:51.800Z,100613.09
2018-05-17T16:26:19.254Z,100615.78
2018-05-17T16:28:46.744Z,100613.57
2018-05-17T16:31:14.268Z,100622.22
2018-05-17T16:33:41.842Z,100617.86
2018-05-17T16:36:09.353Z,100608.88
2018-05-17T16:38:36.820Z,100610.22
2018-05-17T16:41:04.355Z,100621.19
2018-05-17T16:43:31.917Z,100618.42
2018-05-17T16:45:59.411Z,100619.64
2018-05-17T16:48:26.951Z,100622.95
2018-05-17T16:50:54.498Z,100624.09
2018-05-17T16:53:22.017Z,100619.03
2018-05-17T16:55:49.537Z,100616.96
2018-05-17T16:58:17.021Z,100622.77
2018-05-17T17:00:44.505Z,100615.53
2018-05-17T17:03:11.984Z,100624.06
2018-05-17T17:05:39.591Z,100628.13
2018-05-17T17:08:07.080Z,100621.35
2018-05-17T17:10:34.594Z,100625.41
2018-05-17T17:13:02.043Z,100618.83
2018-05-17T17:15:29.620Z,100619.41
2018-05-17T17:17:57.200Z,100620.31
2018-05-17T17:20:24.735Z,100626.60
2018-05-17T17:22:52.288Z,100620.20
2018-05-17T17:25:19.817Z,100629.29
2018-05-17T17:27:47.292Z,100626.11
2018-05-17T17:30:14.763Z,100625.06
2018-05-17T17:32:42.267Z,100628.95
2018-05-17T17:35:09.743Z,100619.15
2018-05-17T17:37:37.230Z,100632.12
2018-05-17T17:40:04.749Z,100630.09
2018-05-17T17:42:32.722Z,100634.00
2018-05-17T17:45:00.239Z,100638.58
2018-05-17T17:47:27.773Z,100640.16
2018-05-17T17:49:55.478Z,100624.63
2018-05-17T17:52:22.993Z,100638.42
2018-05-17T17:54:50.474Z,100643.97
2018-05-17T17:57:17.990Z,100645.67
2018-05-17T17:59:45.528Z,100642.70
2018-05-17T18:02:13.011Z,100639.83
2018-05-17T18:04:40.485Z,100644.97
2018-05-17T18:07:07.971Z,100659.12
2018-05-17T18:09:35.443Z,100652.83
2018-05-17T18:12:02.933Z,100652.84
2018-05-17T18:14:30.480Z,100659.53
2018-05-17T18:16:59.375Z,100656.34
2018-05-17T18:19:26.877Z,100666.75
2018-05-17T18:21:54.437Z,100666.66
2018-05-17T18:24:21.925Z,100666.66
2018-05-17T18:26:49.441Z,100669.16
2018-05-17T18:29:17.067Z,100673.16
2018-05-17T18:31:44.580Z,100673.08
2018-05-17T18:34:12.130Z,100680.70
2018-05-17T18:36:39.633Z,100681.56
2018-05-17T18:39:07.089Z,100687.24
2018-05-17T18:41:34.539Z,100686.61
2018-05-17T18:44:02.054Z,100688.59
2018-05-17T18:46:29.543Z,100692.50
2018-05-17T18:48:57.117Z,100703.56
2018-05-17T18:51:24.567Z,100698.55
2018-05-17T18:53:52.069Z,100707.14
2018-05-17T18:56:19.537Z,100711.97
2018-05-17T18:58:47.021Z,100713.34
2018-05-17T19:01:14.538Z,100719.52
2018-05-17T19:03:42.237Z,100719.83
2018-05-17T19:06:10.221Z,100722.71
2018-05-17T19:08:37.897Z,100724.51
2018-05-17T19:11:05.398Z,100727.03
2018-05-17T19:13:32.897Z,100735.41
2018-05-17T19:16:00.386Z,100737.36
2018-05-17T19:18:27.918Z,100738.34
2018-05-17T19:20:55.523Z,100741.52
2018-05-17T19:23:23.125Z,100752.23
2018-05-17T19:25:50.588Z,100758.70
2018-05-17T19:28:18.094Z,100760.90
2018-05-17T19:30:45.568Z,100766.96
2018-05-17T19:33:13.064Z,100768.48
2018-05-17T19:35:40.535Z,100771.92
2018-05-17T19:38:08.018Z,100769.48
2018-05-17T19:40:35.505Z,100778.95
2018-05-17T19:43:02.968Z,100779.23
2018-05-17T19:45:30.478Z,100783.63
2018-05-17T19:47:57.948Z,100781.30
2018-05-17T19:50:25.543Z,100787.94
2018-05-17T19:52:53.118Z,100788.48
2018-05-17T19:55:20.580Z,100793.71
2018-05-17T19:57:48.041Z,100797.28
2018-05-17T20:00:15.633Z,100798.09
2018-05-17T20:02:43.210Z,100804.55
2018-05-17T20:05:10.665Z,100800.98
2018-05-17T20:07:38.128Z,100796.75
2018-05-17T20:10:05.585Z,100790.02
2018-05-17T20:12:33.145Z,100800.44
2018-05-17T20:15:00.673Z,100803.70
2018-05-17T20:17:28.150Z,100808.22
2018-05-17T20:19:55.644Z,100808.92
2018-05-17T20:22:23.156Z,100805.63
2018-05-17T20:24:50.620Z,100805.62
2018-05-17T20:27:18.074Z,100807.80
2018-05-17T20:29:45.543Z,100811.61
2018-05-17T20:32:13.068Z,100813.39
2018-05-17T20:34:40.563Z,100815.56
2018-05-17T20:37:08.076Z,100817.47
2018-05-17T20:39:35.712Z,100812.73
2018-05-17T20:42:03.187Z,100817.73
2018-05-17T20:44:30.681Z,100817.03
2018-05-17T20:46:58.218Z,100818.09
2018-05-17T20:49:25.714Z,100823.40
2018-05-17T20:51:53.207Z,100825.03
2018-05-17T20:54:20.683Z,100834.13
2018-05-17T20:56:48.175Z,100841.30
2018-05-17T20:59:15.709Z,100839.31
2018-05-17T21:01:43.186Z,100841.98
2018-05-17T21:04:10.714Z,100845.66
2018-05-17T21:06:38.181Z,100845.47
2018-05-17T21:09:06.475Z,100854.45
2018-05-17T21:11:33.989Z,100861.70
2018-05-17T21:14:01.446Z,100856.41
2018-05-17T21:16:28.933Z,100845.74
2018-05-17T21:18:56.447Z,100864.34
2018-05-17T21:21:23.899Z,100874.50
2018-05-17T21:23:51.435Z,100871.42
2018-05-17T21:26:18.953Z,100869.45
2018-05-17T21:28:46.422Z,100871.42
2018-05-17T21:31:13.897Z,100874.51
2018-05-17T21:33:41.429Z,100869.62
2018-05-17T21:36:08.930Z,100873.16
2018-05-17T21:38:36.458Z,100878.56
2018-05-17T21:41:03.922Z,100878.06
2018-05-17T21:43:31.407Z,100890.66
2018-05-17T21:45:58.873Z,100871.88
2018-05-17T21:48:26.344Z,100878.70
2018-05-17T21:50:53.875Z,100865.55
2018-05-17T21:53:21.354Z,100864.22
2018-05-17T21:55:48.925Z,100880.48
2018-05-17T21:58:16.477Z,100876.93
2018-05-17T22:00:43.974Z,100883.16
2018-05-17T22:03:11.429Z,100884.77
2018-05-17T22:05:38.907Z,100888.83
2018-05-17T22:08:06.455Z,100895.53
2018-05-17T22:10:34.031Z,100898.45
2018-05-17T22:13:01.567Z,100902.55
2018-05-17T22:15:29.127Z,100900.51
2018-05-17T22:17:56.583Z,100903.47
2018-05-17T22:20:24.075Z,100902.48
2018-05-17T22:22:51.535Z,100895.26
2018-05-17T22:25:19.005Z,100907.22
2018-05-17T22:27:46.469Z,100903.86
2018-05-17T22:30:14.014Z,100895.19
2018-05-17T22:32:41.488Z,100899.42
2018-05-17T22:35:08.953Z,100899.88
2018-05-17T22:40:10.298Z,100904.47
2018-05-17T22:42:37.752Z,100904.52
2018-05-17T22:45:05.248Z,100897.60
2018-05-17T22:47:32.784Z,100898.28
2018-05-17T22:50:00.276Z,100903.33
2018-05-17T22:52:27.769Z,100901.70
2018-05-17T22:54:55.306Z,100906.50
2018-05-17T22:57:34.784Z,100905.58
2018-05-17T23:00:02.290Z,100902.68
2018-05-17T23:02:29.785Z,100909.34
2018-05-17T23:04:57.496Z,100905.25
2018-05-17T23:07:25.027Z,100902.43
2018-05-17T23:09:52.593Z,100901.94
2018-05-17T23:12:20.101Z,100894.30
2018-05-17T23:14:47.565Z,100891.16
2018-05-17T23:17:15.044Z,100901.16
2018-05-17T23:19:42.591Z,100902.53
2018-05-17T23:22:10.081Z,100897.33
2018-05-17T23:24:37.591Z,100901.76
2018-05-17T23:27:05.111Z,100905.55
2018-05-17T23:29:32.589Z,100903.95
2018-05-17T23:32:00.085Z,100899.71
2018-05-17T23:34:27.656Z,100908.81
2018-05-17T23:36:55.135Z,100914.05
2018-05-17T23:39:22.598Z,100916.02
2018-05-17T23:41:50.175Z,100913.78
2018-05-17T23:44:17.652Z,100914.14
2018-05-17T23:46:45.176Z,100918.03
2018-05-17T23:49:12.707Z,100916.08
2018-05-17T23:51:40.192Z,100923.16
2018-05-17T23:54:07.724Z,100925.19
2018-05-17T23:56:35.210Z,100917.92
2018-05-17T23:59:02.709Z,100916.50
